sensor_id;sensor_type;location;lat;lon;timestamp;pressure;altitude;pressure_sealevel;temperature;humidity
58785;BME280;44557;51.862;19.378;2023-04-07T00:00:21;99228.30;;;2.10;100.00
58785;BME280;44557;51.862;19.378;2023-04-07T00:02:42;99226.89;;;2.06;100.00
58785;BME280;44557;51.862;19.378;2023-04-07T00:04:43;99221.46;;;2.02;100.00
58785;BME280;44557;51.862;19.378;2023-04-07T00:06:44;99222.86;;;2.03;100.00
58785;BME280;44557;51.862;19.378;2023-04-07T00:08:45;99218.35;;;1.96;100.00
58785;BME280;44557;51.862;19.378;2023-04-07T00:10:46;99217.43;;;1.92;100.00
58785;BME280;44557;51.862;19.378;2023-04-07T00:12:47;99215.35;;;1.89;100.00
58785;BME280;44557;51.862;19.378;2023-04-07T00:14:48;99217.40;;;2.08;100.00
58785;BME280;44557;51.862;19.378;2023-04-07T00:16:49;99219.84;;;2.12;100.00
58785;BME280;44557;51.862;19.378;2023-04-07T00:18:50;99217.89;;;2.11;100.00
58785;BME280;44557;51.862;19.378;2023-04-07T00:20:51;99210.66;;;2.12;100.00
58785;BME280;44557;51.862;19.378;2023-04-07T00:22:52;99206.96;;;1.94;100.00
58785;BME280;44557;51.862;19.378;2023-04-07T00:24:53;99203.61;;;1.96;100.00
58785;BME280;44557;51.862;19.378;2023-04-07T00:26:54;99205.27;;;2.03;100.00
58785;BME280;44557;51.862;19.378;2023-04-07T00:28:57;99206.48;;;2.08;100.00
58785;BME280;44557;51.862;19.378;2023-04-07T00:30:58;99205.73;;;2.00;100.00
58785;BME280;44557;51.862;19.378;2023-04-07T00:32:59;99206.20;;;2.12;100.00
58785;BME280;44557;51.862;19.378;2023-04-07T00:34:59;99206.66;;;1.99;100.00
58785;BME280;44557;51.862;19.378;2023-04-07T00:37:00;99204.25;;;2.08;100.00
58785;BME280;44557;51.862;19.378;2023-04-07T00:39:01;99203.61;;;2.00;100.00
58785;BME280;44557;51.862;19.378;2023-04-07T00:41:02;99202.73;;;1.97;100.00
58785;BME280;44557;51.862;19.378;2023-04-07T00:43:03;99201.77;;;1.96;100.00
58785;BME280;44557;51.862;19.378;2023-04-07T00:45:04;99197.17;;;1.91;100.00
58785;BME280;44557;51.862;19.378;2023-04-07T00:47:05;99199.25;;;1.90;100.00
58785;BME280;44557;51.862;19.378;2023-04-07T00:49:07;99195.54;;;1.92;100.00
58785;BME280;44557;51.862;19.378;2023-04-07T00:51:07;99188.52;;;1.93;100.00
58785;BME280;44557;51.862;19.378;2023-04-07T00:53:08;99191.61;;;2.00;100.00
58785;BME280;44557;51.862;19.378;2023-04-07T00:55:10;99187.02;;;1.90;100.00
58785;BME280;44557;51.862;19.378;2023-04-07T00:57:11;99187.20;;;2.01;100.00
58785;BME280;44557;51.862;19.378;2023-04-07T00:59:12;99183.00;;;2.02;100.00
58785;BME280;44557;51.862;19.378;2023-04-07T01:01:26;99179.95;;;2.14;100.00
58785;BME280;44557;51.862;19.378;2023-04-07T01:03:35;99178.91;;;2.10;100.00
58785;BME280;44557;51.862;19.378;2023-04-07T01:05:41;99176.93;;;2.14;100.00
58785;BME280;44557;51.862;19.378;2023-04-07T01:10:39;99172.55;;;2.06;100.00
58785;BME280;44557;51.862;19.378;2023-04-07T01:12:59;99171.19;;;2.07;100.00
58785;BME280;44557;51.862;19.378;2023-04-07T01:15:09;99163.56;;;2.11;100.00
58785;BME280;44557;51.862;19.378;2023-04-07T01:17:12;99168.61;;;2.15;100.00
58785;BME280;44557;51.862;19.378;2023-04-07T01:19:48;99171.45;;;2.11;100.00
58785;BME280;44557;51.862;19.378;2023-04-07T01:21:52;99170.48;;;1.99;100.00
58785;BME280;44557;51.862;19.378;2023-04-07T01:24:11;99168.10;;;2.06;100.00
58785;BME280;44557;51.862;19.378;2023-04-07T01:26:20;99162.13;;;2.25;100.00
58785;BME280;44557;51.862;19.378;2023-04-07T01:28:45;99162.00;;;2.30;100.00
58785;BME280;44557;51.862;19.378;2023-04-07T01:30:51;99162.08;;;2.16;100.00
58785;BME280;44557;51.862;19.378;2023-04-07T01:32:55;99162.88;;;2.10;100.00
58785;BME280;44557;51.862;19.378;2023-04-07T01:34:58;99161.10;;;2.09;100.00
58785;BME280;44557;51.862;19.378;2023-04-07T01:37:01;99162.64;;;2.01;100.00
58785;BME280;44557;51.862;19.378;2023-04-07T01:39:02;99159.29;;;1.95;100.00
58785;BME280;44557;51.862;19.378;2023-04-07T01:41:04;99160.17;;;1.95;100.00
58785;BME280;44557;51.862;19.378;2023-04-07T01:43:07;99162.70;;;2.01;100.00
58785;BME280;44557;51.862;19.378;2023-04-07T01:45:08;99158.63;;;2.11;100.00
58785;BME280;44557;51.862;19.378;2023-04-07T01:47:10;99159.27;;;2.21;100.00
58785;BME280;44557;51.862;19.378;2023-04-07T01:49:12;99155.83;;;2.06;100.00
58785;BME280;44557;51.862;19.378;2023-04-07T01:51:14;99154.27;;;1.91;100.00
58785;BME280;44557;51.862;19.378;2023-04-07T01:53:19;99156.12;;;2.08;100.00
58785;BME280;44557;51.862;19.378;2023-04-07T01:55:21;99159.40;;;2.10;100.00
58785;BME280;44557;51.862;19.378;2023-04-07T01:57:22;99155.56;;;2.19;100.00
58785;BME280;44557;51.862;19.378;2023-04-07T01:59:24;99150.01;;;2.16;100.00
58785;BME280;44557;51.862;19.378;2023-04-07T02:01:25;99148.73;;;2.25;100.00
58785;BME280;44557;51.862;19.378;2023-04-07T02:03:34;99148.67;;;2.19;100.00
58785;BME280;44557;51.862;19.378;2023-04-07T02:05:37;99148.67;;;2.24;100.00
58785;BME280;44557;51.862;19.378;2023-04-07T02:09:43;99139.99;;;2.17;100.00
58785;BME280;44557;51.862;19.378;2023-04-07T02:11:47;99141.90;;;2.27;100.00
58785;BME280;44557;51.862;19.378;2023-04-07T02:13:51;99141.77;;;2.18;100.00
58785;BME280;44557;51.862;19.378;2023-04-07T02:15:53;99140.46;;;2.18;100.00
58785;BME280;44557;51.862;19.378;2023-04-07T02:17:57;99142.52;;;2.06;100.00
58785;BME280;44557;51.862;19.378;2023-04-07T02:19:59;99140.73;;;2.05;100.00
58785;BME280;44557;51.862;19.378;2023-04-07T02:22:04;99140.45;;;2.09;100.00
58785;BME280;44557;51.862;19.378;2023-04-07T02:24:06;99139.55;;;2.14;100.00
58785;BME280;44557;51.862;19.378;2023-04-07T02:26:08;99141.52;;;2.17;100.00
58785;BME280;44557;51.862;19.378;2023-04-07T02:28:10;99139.89;;;2.32;100.00
58785;BME280;44557;51.862;19.378;2023-04-07T02:30:11;99137.16;;;2.28;100.00
58785;BME280;44557;51.862;19.378;2023-04-07T02:32:12;99136.98;;;2.31;100.00
58785;BME280;44557;51.862;19.378;2023-04-07T02:34:13;99136.31;;;2.14;100.00
58785;BME280;44557;51.862;19.378;2023-04-07T02:36:14;99136.55;;;2.28;100.00
58785;BME280;44557;51.862;19.378;2023-04-07T02:38:15;99134.46;;;2.29;100.00
58785;BME280;44557;51.862;19.378;2023-04-07T02:40:16;99132.10;;;2.37;100.00
58785;BME280;44557;51.862;19.378;2023-04-07T02:42:17;99137.73;;;2.32;100.00
58785;BME280;44557;51.862;19.378;2023-04-07T02:44:17;99134.73;;;2.38;100.00
58785;BME280;44557;51.862;19.378;2023-04-07T02:46:18;99133.09;;;2.17;100.00
58785;BME280;44557;51.862;19.378;2023-04-07T02:48:20;99142.88;;;2.23;100.00
58785;BME280;44557;51.862;19.378;2023-04-07T02:50:21;99140.67;;;2.28;100.00
58785;BME280;44557;51.862;19.378;2023-04-07T02:52:22;99139.92;;;2.40;100.00
58785;BME280;44557;51.862;19.378;2023-04-07T02:54:22;99135.20;;;2.34;100.00
58785;BME280;44557;51.862;19.378;2023-04-07T02:56:23;99131.25;;;2.33;100.00
58785;BME280;44557;51.862;19.378;2023-04-07T02:58:24;99131.52;;;2.31;100.00
58785;BME280;44557;51.862;19.378;2023-04-07T03:00:25;99132.38;;;2.21;100.00
58785;BME280;44557;51.862;19.378;2023-04-07T03:02:26;99133.63;;;2.21;100.00
58785;BME280;44557;51.862;19.378;2023-04-07T03:04:27;99131.61;;;2.24;100.00
58785;BME280;44557;51.862;19.378;2023-04-07T03:06:28;99136.63;;;2.33;100.00
58785;BME280;44557;51.862;19.378;2023-04-07T03:08:29;99136.51;;;2.24;100.00
58785;BME280;44557;51.862;19.378;2023-04-07T03:10:30;99136.79;;;2.27;100.00
58785;BME280;44557;51.862;19.378;2023-04-07T03:12:31;99138.44;;;2.35;100.00
58785;BME280;44557;51.862;19.378;2023-04-07T03:14:31;99139.45;;;2.36;100.00
58785;BME280;44557;51.862;19.378;2023-04-07T03:16:32;99139.73;;;2.41;100.00
58785;BME280;44557;51.862;19.378;2023-04-07T03:18:33;99138.47;;;2.36;100.00
58785;BME280;44557;51.862;19.378;2023-04-07T03:20:34;99135.38;;;2.20;100.00
58785;BME280;44557;51.862;19.378;2023-04-07T03:22:35;99136.57;;;2.27;100.00
58785;BME280;44557;51.862;19.378;2023-04-07T03:24:36;99133.02;;;2.34;100.00
58785;BME280;44557;51.862;19.378;2023-04-07T03:26:39;99134.34;;;2.29;100.00
58785;BME280;44557;51.862;19.378;2023-04-07T03:28:40;99135.16;;;2.36;100.00
58785;BME280;44557;51.862;19.378;2023-04-07T03:30:41;99132.36;;;2.34;100.00
58785;BME280;44557;51.862;19.378;2023-04-07T03:32:42;99130.36;;;2.21;100.00
58785;BME280;44557;51.862;19.378;2023-04-07T03:34:43;99129.52;;;2.23;100.00
58785;BME280;44557;51.862;19.378;2023-04-07T03:36:44;99127.16;;;2.31;100.00
58785;BME280;44557;51.862;19.378;2023-04-07T03:38:46;99126.73;;;2.27;100.00
58785;BME280;44557;51.862;19.378;2023-04-07T03:40:47;99125.39;;;2.32;100.00
58785;BME280;44557;51.862;19.378;2023-04-07T03:42:47;99129.35;;;2.36;100.00
58785;BME280;44557;51.862;19.378;2023-04-07T03:44:48;99128.00;;;2.36;100.00
58785;BME280;44557;51.862;19.378;2023-04-07T03:46:49;99126.58;;;2.42;100.00
58785;BME280;44557;51.862;19.378;2023-04-07T03:48:50;99128.39;;;2.44;100.00
58785;BME280;44557;51.862;19.378;2023-04-07T03:50:52;99128.17;;;2.50;100.00
58785;BME280;44557;51.862;19.378;2023-04-07T03:52:53;99124.80;;;2.44;100.00
58785;BME280;44557;51.862;19.378;2023-04-07T03:54:55;99125.72;;;2.35;100.00
58785;BME280;44557;51.862;19.378;2023-04-07T03:56:56;99127.45;;;2.36;100.00
58785;BME280;44557;51.862;19.378;2023-04-07T03:58:57;99128.98;;;2.41;100.00
58785;BME280;44557;51.862;19.378;2023-04-07T04:00:58;99121.18;;;2.42;100.00
58785;BME280;44557;51.862;19.378;2023-04-07T04:02:59;99126.09;;;2.39;100.00
58785;BME280;44557;51.862;19.378;2023-04-07T04:05:00;99122.05;;;2.48;100.00
58785;BME280;44557;51.862;19.378;2023-04-07T04:07:01;99127.05;;;2.48;100.00
58785;BME280;44557;51.862;19.378;2023-04-07T04:09:02;99125.34;;;2.44;100.00
58785;BME280;44557;51.862;19.378;2023-04-07T04:11:03;99124.32;;;2.43;100.00
58785;BME280;44557;51.862;19.378;2023-04-07T04:13:05;99127.25;;;2.53;100.00
58785;BME280;44557;51.862;19.378;2023-04-07T04:15:08;99121.13;;;2.54;100.00
58785;BME280;44557;51.862;19.378;2023-04-07T04:17:09;99124.52;;;2.57;100.00
58785;BME280;44557;51.862;19.378;2023-04-07T04:19:10;99122.93;;;2.51;100.00
58785;BME280;44557;51.862;19.378;2023-04-07T04:21:10;99123.50;;;2.46;100.00
58785;BME280;44557;51.862;19.378;2023-04-07T04:23:11;99126.08;;;2.57;100.00
58785;BME280;44557;51.862;19.378;2023-04-07T04:25:12;99126.59;;;2.62;100.00
58785;BME280;44557;51.862;19.378;2023-04-07T04:27:13;99122.00;;;2.60;100.00
58785;BME280;44557;51.862;19.378;2023-04-07T04:29:14;99121.58;;;2.62;100.00
58785;BME280;44557;51.862;19.378;2023-04-07T04:31:15;99122.26;;;2.58;100.00
58785;BME280;44557;51.862;19.378;2023-04-07T04:33:16;99130.10;;;2.61;100.00
58785;BME280;44557;51.862;19.378;2023-04-07T04:35:17;99123.96;;;2.60;100.00
58785;BME280;44557;51.862;19.378;2023-04-07T04:37:18;99125.26;;;2.70;100.00
58785;BME280;44557;51.862;19.378;2023-04-07T04:39:19;99126.57;;;2.69;100.00
58785;BME280;44557;51.862;19.378;2023-04-07T04:41:20;99125.89;;;2.70;100.00
58785;BME280;44557;51.862;19.378;2023-04-07T04:43:20;99123.70;;;2.65;100.00
58785;BME280;44557;51.862;19.378;2023-04-07T04:45:21;99125.41;;;2.67;100.00
58785;BME280;44557;51.862;19.378;2023-04-07T04:47:22;99125.80;;;2.72;100.00
58785;BME280;44557;51.862;19.378;2023-04-07T04:49:23;99126.41;;;2.63;100.00
58785;BME280;44557;51.862;19.378;2023-04-07T04:51:24;99123.46;;;2.57;100.00
58785;BME280;44557;51.862;19.378;2023-04-07T04:53:25;99124.36;;;2.73;100.00
58785;BME280;44557;51.862;19.378;2023-04-07T04:55:27;99122.45;;;2.68;100.00
58785;BME280;44557;51.862;19.378;2023-04-07T04:57:28;99125.30;;;2.61;100.00
58785;BME280;44557;51.862;19.378;2023-04-07T04:59:29;99126.63;;;2.60;100.00
58785;BME280;44557;51.862;19.378;2023-04-07T05:01:30;99129.55;;;2.70;100.00
58785;BME280;44557;51.862;19.378;2023-04-07T05:03:30;99128.56;;;2.76;100.00
58785;BME280;44557;51.862;19.378;2023-04-07T05:05:31;99123.95;;;2.78;100.00
58785;BME280;44557;51.862;19.378;2023-04-07T05:07:32;99129.48;;;2.67;100.00
58785;BME280;44557;51.862;19.378;2023-04-07T05:09:33;99125.87;;;2.74;100.00
58785;BME280;44557;51.862;19.378;2023-04-07T05:11:34;99127.51;;;2.88;100.00
58785;BME280;44557;51.862;19.378;2023-04-07T05:13:35;99123.36;;;2.77;100.00
58785;BME280;44557;51.862;19.378;2023-04-07T05:15:36;99127.30;;;2.77;100.00
58785;BME280;44557;51.862;19.378;2023-04-07T05:17:37;99124.29;;;2.77;100.00
58785;BME280;44557;51.862;19.378;2023-04-07T05:19:39;99126.94;;;2.81;100.00
58785;BME280;44557;51.862;19.378;2023-04-07T05:21:41;99125.55;;;2.91;100.00
58785;BME280;44557;51.862;19.378;2023-04-07T05:23:41;99129.61;;;2.83;100.00
58785;BME280;44557;51.862;19.378;2023-04-07T05:25:46;99134.86;;;2.85;100.00
58785;BME280;44557;51.862;19.378;2023-04-07T05:27:47;99136.66;;;2.88;100.00
58785;BME280;44557;51.862;19.378;2023-04-07T05:29:47;99134.76;;;2.88;100.00
58785;BME280;44557;51.862;19.378;2023-04-07T05:31:48;99140.38;;;2.87;100.00
58785;BME280;44557;51.862;19.378;2023-04-07T05:33:49;99141.66;;;2.87;100.00
58785;BME280;44557;51.862;19.378;2023-04-07T05:35:50;99138.88;;;2.99;100.00
58785;BME280;44557;51.862;19.378;2023-04-07T05:37:51;99143.36;;;3.04;100.00
58785;BME280;44557;51.862;19.378;2023-04-07T05:39:52;99139.32;;;3.02;100.00
58785;BME280;44557;51.862;19.378;2023-04-07T05:41:53;99144.12;;;3.07;100.00
58785;BME280;44557;51.862;19.378;2023-04-07T05:43:54;99142.09;;;2.96;100.00
58785;BME280;44557;51.862;19.378;2023-04-07T05:45:56;99141.11;;;2.94;100.00
58785;BME280;44557;51.862;19.378;2023-04-07T05:47:57;99137.42;;;2.96;100.00
58785;BME280;44557;51.862;19.378;2023-04-07T05:49:58;99136.43;;;2.99;100.00
58785;BME280;44557;51.862;19.378;2023-04-07T05:51:59;99134.80;;;2.99;100.00
58785;BME280;44557;51.862;19.378;2023-04-07T05:54:01;99131.87;;;3.04;100.00
58785;BME280;44557;51.862;19.378;2023-04-07T05:56:05;99135.37;;;3.00;100.00
58785;BME280;44557;51.862;19.378;2023-04-07T05:58:06;99130.55;;;3.13;100.00
58785;BME280;44557;51.862;19.378;2023-04-07T06:00:07;99133.23;;;3.12;100.00
58785;BME280;44557;51.862;19.378;2023-04-07T06:02:09;99133.08;;;3.12;100.00
58785;BME280;44557;51.862;19.378;2023-04-07T06:04:10;99135.60;;;3.10;100.00
58785;BME280;44557;51.862;19.378;2023-04-07T06:06:11;99131.20;;;3.08;100.00
58785;BME280;44557;51.862;19.378;2023-04-07T06:08:12;99130.27;;;3.13;100.00
58785;BME280;44557;51.862;19.378;2023-04-07T06:10:13;99132.63;;;3.11;100.00
58785;BME280;44557;51.862;19.378;2023-04-07T06:12:14;99138.70;;;3.14;100.00
58785;BME280;44557;51.862;19.378;2023-04-07T06:14:16;99138.13;;;3.20;100.00
58785;BME280;44557;51.862;19.378;2023-04-07T06:16:17;99138.45;;;3.33;100.00
58785;BME280;44557;51.862;19.378;2023-04-07T06:18:18;99139.39;;;3.25;100.00
58785;BME280;44557;51.862;19.378;2023-04-07T06:20:19;99136.88;;;3.27;100.00
58785;BME280;44557;51.862;19.378;2023-04-07T06:22:22;99133.79;;;3.34;100.00
58785;BME280;44557;51.862;19.378;2023-04-07T06:24:26;99140.54;;;3.37;100.00
58785;BME280;44557;51.862;19.378;2023-04-07T06:26:27;99140.09;;;3.45;100.00
58785;BME280;44557;51.862;19.378;2023-04-07T06:28:28;99135.20;;;3.35;100.00
58785;BME280;44557;51.862;19.378;2023-04-07T06:30:29;99138.61;;;3.48;100.00
58785;BME280;44557;51.862;19.378;2023-04-07T06:32:30;99136.90;;;3.41;100.00
58785;BME280;44557;51.862;19.378;2023-04-07T06:34:31;99135.67;;;3.40;100.00
58785;BME280;44557;51.862;19.378;2023-04-07T06:36:32;99134.77;;;3.52;100.00
58785;BME280;44557;51.862;19.378;2023-04-07T06:38:33;99135.25;;;3.57;100.00
58785;BME280;44557;51.862;19.378;2023-04-07T06:40:34;99131.79;;;3.59;100.00
58785;BME280;44557;51.862;19.378;2023-04-07T06:42:35;99130.98;;;3.59;100.00
58785;BME280;44557;51.862;19.378;2023-04-07T06:44:36;99131.98;;;3.65;100.00
58785;BME280;44557;51.862;19.378;2023-04-07T06:46:37;99129.84;;;3.73;100.00
58785;BME280;44557;51.862;19.378;2023-04-07T06:48:39;99130.37;;;3.69;100.00
58785;BME280;44557;51.862;19.378;2023-04-07T06:50:39;99130.38;;;3.76;100.00
58785;BME280;44557;51.862;19.378;2023-04-07T06:52:40;99127.30;;;3.72;100.00
58785;BME280;44557;51.862;19.378;2023-04-07T06:54:41;99127.25;;;3.81;100.00
58785;BME280;44557;51.862;19.378;2023-04-07T06:56:42;99127.02;;;3.79;100.00
58785;BME280;44557;51.862;19.378;2023-04-07T06:58:43;99128.59;;;3.80;100.00
58785;BME280;44557;51.862;19.378;2023-04-07T07:00:45;99128.31;;;3.94;100.00
58785;BME280;44557;51.862;19.378;2023-04-07T07:02:45;99128.95;;;3.90;100.00
58785;BME280;44557;51.862;19.378;2023-04-07T07:04:46;99132.16;;;3.86;100.00
58785;BME280;44557;51.862;19.378;2023-04-07T07:06:48;99130.89;;;3.84;100.00
58785;BME280;44557;51.862;19.378;2023-04-07T07:08:49;99127.48;;;3.85;100.00
58785;BME280;44557;51.862;19.378;2023-04-07T07:10:50;99131.25;;;3.89;100.00
58785;BME280;44557;51.862;19.378;2023-04-07T07:12:51;99133.45;;;4.00;100.00
58785;BME280;44557;51.862;19.378;2023-04-07T07:14:52;99133.52;;;4.05;100.00
58785;BME280;44557;51.862;19.378;2023-04-07T07:16:53;99133.43;;;4.05;100.00
58785;BME280;44557;51.862;19.378;2023-04-07T07:18:54;99139.30;;;4.04;100.00
58785;BME280;44557;51.862;19.378;2023-04-07T07:20:55;99135.23;;;4.05;100.00
58785;BME280;44557;51.862;19.378;2023-04-07T07:22:56;99138.16;;;4.12;100.00
58785;BME280;44557;51.862;19.378;2023-04-07T07:24:58;99136.85;;;4.08;100.00
58785;BME280;44557;51.862;19.378;2023-04-07T07:26:59;99135.92;;;4.12;100.00
58785;BME280;44557;51.862;19.378;2023-04-07T07:29:01;99132.98;;;4.08;100.00
58785;BME280;44557;51.862;19.378;2023-04-07T07:31:10;99135.38;;;4.24;100.00
58785;BME280;44557;51.862;19.378;2023-04-07T07:33:12;99134.42;;;4.20;100.00
58785;BME280;44557;51.862;19.378;2023-04-07T07:35:14;99135.17;;;4.19;100.00
58785;BME280;44557;51.862;19.378;2023-04-07T07:37:15;99139.03;;;4.28;100.00
58785;BME280;44557;51.862;19.378;2023-04-07T07:39:17;99142.23;;;4.20;100.00
58785;BME280;44557;51.862;19.378;2023-04-07T07:41:18;99138.47;;;4.36;100.00
58785;BME280;44557;51.862;19.378;2023-04-07T07:43:19;99140.76;;;4.33;100.00
58785;BME280;44557;51.862;19.378;2023-04-07T07:45:20;99140.09;;;4.38;100.00
58785;BME280;44557;51.862;19.378;2023-04-07T07:47:21;99137.64;;;4.42;100.00
58785;BME280;44557;51.862;19.378;2023-04-07T07:49:22;99139.29;;;4.44;100.00
58785;BME280;44557;51.862;19.378;2023-04-07T07:51:23;99143.05;;;4.46;100.00
58785;BME280;44557;51.862;19.378;2023-04-07T07:53:25;99143.02;;;4.56;100.00
58785;BME280;44557;51.862;19.378;2023-04-07T07:55:26;99144.98;;;4.58;100.00
58785;BME280;44557;51.862;19.378;2023-04-07T07:57:27;99144.04;;;4.56;100.00
58785;BME280;44557;51.862;19.378;2023-04-07T07:59:28;99143.16;;;4.48;100.00
58785;BME280;44557;51.862;19.378;2023-04-07T08:01:29;99145.04;;;4.51;100.00
58785;BME280;44557;51.862;19.378;2023-04-07T08:03:29;99144.75;;;4.62;100.00
58785;BME280;44557;51.862;19.378;2023-04-07T08:05:31;99147.71;;;4.65;100.00
58785;BME280;44557;51.862;19.378;2023-04-07T08:07:32;99149.39;;;4.64;100.00
58785;BME280;44557;51.862;19.378;2023-04-07T08:09:34;99144.80;;;4.65;100.00
58785;BME280;44557;51.862;19.378;2023-04-07T08:11:35;99146.98;;;4.71;100.00
58785;BME280;44557;51.862;19.378;2023-04-07T08:13:36;99146.01;;;4.68;100.00
58785;BME280;44557;51.862;19.378;2023-04-07T08:15:38;99147.56;;;4.72;100.00
58785;BME280;44557;51.862;19.378;2023-04-07T08:17:39;99151.42;;;4.80;100.00
58785;BME280;44557;51.862;19.378;2023-04-07T08:19:40;99152.29;;;4.68;100.00
58785;BME280;44557;51.862;19.378;2023-04-07T08:21:41;99150.58;;;4.80;100.00
58785;BME280;44557;51.862;19.378;2023-04-07T08:23:42;99149.85;;;4.86;100.00
58785;BME280;44557;51.862;19.378;2023-04-07T08:25:46;99148.54;;;4.86;100.00
58785;BME280;44557;51.862;19.378;2023-04-07T08:27:47;99144.99;;;4.84;100.00
58785;BME280;44557;51.862;19.378;2023-04-07T08:29:59;99150.79;;;4.69;100.00
58785;BME280;44557;51.862;19.378;2023-04-07T08:32:00;99146.41;;;4.78;100.00
58785;BME280;44557;51.862;19.378;2023-04-07T08:34:01;99149.10;;;4.83;100.00
58785;BME280;44557;51.862;19.378;2023-04-07T08:36:05;99152.34;;;4.83;100.00
58785;BME280;44557;51.862;19.378;2023-04-07T08:38:06;99150.32;;;4.78;100.00
58785;BME280;44557;51.862;19.378;2023-04-07T08:40:09;99148.61;;;4.87;100.00
58785;BME280;44557;51.862;19.378;2023-04-07T08:42:11;99144.18;;;4.82;100.00
58785;BME280;44557;51.862;19.378;2023-04-07T08:44:14;99146.34;;;4.90;100.00
58785;BME280;44557;51.862;19.378;2023-04-07T08:46:16;99145.19;;;4.97;100.00
58785;BME280;44557;51.862;19.378;2023-04-07T08:48:22;99145.79;;;4.95;100.00
58785;BME280;44557;51.862;19.378;2023-04-07T08:50:26;99145.63;;;4.95;100.00
58785;BME280;44557;51.862;19.378;2023-04-07T08:52:33;99145.73;;;4.94;100.00
58785;BME280;44557;51.862;19.378;2023-04-07T08:54:35;99147.39;;;4.96;100.00
58785;BME280;44557;51.862;19.378;2023-04-07T08:56:40;99143.20;;;4.91;100.00
58785;BME280;44557;51.862;19.378;2023-04-07T08:58:42;99143.28;;;5.04;100.00
58785;BME280;44557;51.862;19.378;2023-04-07T09:00:43;99141.20;;;5.06;100.00
58785;BME280;44557;51.862;19.378;2023-04-07T09:02:46;99143.63;;;4.95;100.00
58785;BME280;44557;51.862;19.378;2023-04-07T09:04:48;99145.04;;;5.00;100.00
58785;BME280;44557;51.862;19.378;2023-04-07T09:06:50;99143.86;;;4.95;100.00
58785;BME280;44557;51.862;19.378;2023-04-07T09:08:51;99147.71;;;5.02;100.00
58785;BME280;44557;51.862;19.378;2023-04-07T09:10:52;99143.73;;;5.02;100.00
58785;BME280;44557;51.862;19.378;2023-04-07T09:12:53;99141.63;;;5.10;100.00
58785;BME280;44557;51.862;19.378;2023-04-07T09:14:54;99134.77;;;5.10;100.00
58785;BME280;44557;51.862;19.378;2023-04-07T09:16:55;99134.98;;;5.11;100.00
58785;BME280;44557;51.862;19.378;2023-04-07T09:18:57;99132.46;;;5.14;100.00
58785;BME280;44557;51.862;19.378;2023-04-07T09:21:00;99129.34;;;5.03;100.00
58785;BME280;44557;51.862;19.378;2023-04-07T09:23:02;99127.91;;;5.07;100.00
58785;BME280;44557;51.862;19.378;2023-04-07T09:25:15;99123.70;;;5.07;100.00
58785;BME280;44557;51.862;19.378;2023-04-07T09:27:19;99123.85;;;5.12;100.00
58785;BME280;44557;51.862;19.378;2023-04-07T09:29:20;99118.28;;;5.21;100.00
58785;BME280;44557;51.862;19.378;2023-04-07T09:31:22;99115.09;;;5.13;100.00
58785;BME280;44557;51.862;19.378;2023-04-07T09:33:27;99115.11;;;5.08;100.00
58785;BME280;44557;51.862;19.378;2023-04-07T09:35:28;99122.76;;;5.13;100.00
58785;BME280;44557;51.862;19.378;2023-04-07T09:37:29;99129.20;;;5.19;100.00
58785;BME280;44557;51.862;19.378;2023-04-07T09:39:30;99125.38;;;5.19;100.00
58785;BME280;44557;51.862;19.378;2023-04-07T09:41:31;99130.00;;;5.23;100.00
58785;BME280;44557;51.862;19.378;2023-04-07T09:43:34;99126.67;;;5.23;100.00
58785;BME280;44557;51.862;19.378;2023-04-07T09:45:36;99128.56;;;5.22;100.00
58785;BME280;44557;51.862;19.378;2023-04-07T09:47:38;99128.36;;;5.18;100.00
58785;BME280;44557;51.862;19.378;2023-04-07T09:49:52;99126.93;;;5.22;100.00
58785;BME280;44557;51.862;19.378;2023-04-07T09:51:55;99124.35;;;5.30;100.00
58785;BME280;44557;51.862;19.378;2023-04-07T09:53:57;99127.57;;;5.24;100.00
58785;BME280;44557;51.862;19.378;2023-04-07T09:55:59;99123.55;;;5.32;100.00
58785;BME280;44557;51.862;19.378;2023-04-07T09:58:00;99122.83;;;5.39;100.00
58785;BME280;44557;51.862;19.378;2023-04-07T10:00:02;99125.17;;;5.33;100.00
58785;BME280;44557;51.862;19.378;2023-04-07T10:02:05;99127.91;;;5.30;100.00
58785;BME280;44557;51.862;19.378;2023-04-07T10:04:07;99126.44;;;5.32;100.00
58785;BME280;44557;51.862;19.378;2023-04-07T10:06:08;99126.86;;;5.36;100.00
58785;BME280;44557;51.862;19.378;2023-04-07T10:08:10;99125.90;;;5.37;100.00
58785;BME280;44557;51.862;19.378;2023-04-07T10:10:11;99125.30;;;5.37;100.00
58785;BME280;44557;51.862;19.378;2023-04-07T10:12:13;99125.77;;;5.32;100.00
58785;BME280;44557;51.862;19.378;2023-04-07T10:14:15;99125.26;;;5.31;100.00
58785;BME280;44557;51.862;19.378;2023-04-07T10:16:17;99138.06;;;5.30;100.00
58785;BME280;44557;51.862;19.378;2023-04-07T10:18:19;99145.48;;;5.30;100.00
58785;BME280;44557;51.862;19.378;2023-04-07T10:20:21;99131.17;;;5.24;100.00
58785;BME280;44557;51.862;19.378;2023-04-07T10:22:26;99121.64;;;5.29;100.00
58785;BME280;44557;51.862;19.378;2023-04-07T10:26:56;99119.99;;;5.26;100.00
58785;BME280;44557;51.862;19.378;2023-04-07T10:29:05;99118.91;;;5.31;100.00
58785;BME280;44557;51.862;19.378;2023-04-07T10:31:09;99120.48;;;5.39;100.00
58785;BME280;44557;51.862;19.378;2023-04-07T10:33:10;99115.21;;;5.42;100.00
58785;BME280;44557;51.862;19.378;2023-04-07T10:35:12;99116.16;;;5.47;100.00
58785;BME280;44557;51.862;19.378;2023-04-07T10:37:13;99115.38;;;5.42;100.00
58785;BME280;44557;51.862;19.378;2023-04-07T10:41:37;99116.66;;;5.52;100.00
58785;BME280;44557;51.862;19.378;2023-04-07T10:43:39;99121.95;;;5.51;100.00
58785;BME280;44557;51.862;19.378;2023-04-07T10:50:20;99123.05;;;5.61;100.00
58785;BME280;44557;51.862;19.378;2023-04-07T10:52:23;99126.94;;;5.58;100.00